Time;durP1;ratioP1;P1;durP2;ratioP2;P2;SDS_P1;SDS_P2;PMS_P1;PMS_P2;Temp;Humidity;BMP_temperature;BMP_pressure;BME280_temperature;BME280_humidity;BME280_pressure;Samples;Min_cycle;Max_cycle;Signal;HPM_P1;HPM_P2
2023/07/10 00:00:16;;;;;;;31.40;18.08;;;19.10;99.90;;;;;;5046770;28;20448;-49
2023/07/10 00:02:42;;;;;;;25.20;16.60;;;19.20;99.90;;;;;;5045989;28;20057;-52
2023/07/10 00:05:17;;;;;;;28.27;17.20;;;19.20;99.90;;;;;;5046201;28;20061;-53
2023/07/10 00:07:43;;;;;;;32.20;16.95;;;19.20;99.90;;;;;;5047381;28;20375;-51
2023/07/10 00:10:15;;;;;;;31.42;16.88;;;19.20;99.90;;;;;;5047177;28;20094;-53
2023/07/10 00:12:42;;;;;;;29.77;16.40;;;19.30;99.90;;;;;;5030392;28;20049;-49
2023/07/10 00:15:20;;;;;;;33.30;14.90;;;19.30;99.90;;;;;;5026680;28;20033;-52
2023/07/10 00:17:51;;;;;;;24.38;14.35;;;19.30;99.90;;;;;;5025163;28;20044;-50
2023/07/10 00:20:22;;;;;;;28.52;14.60;;;19.40;99.90;;;;;;5026824;28;20049;-50
2023/07/10 00:22:47;;;;;;;31.90;16.30;;;19.30;99.90;;;;;;5025908;28;20536;-51
2023/07/10 00:25:17;;;;;;;30.27;15.82;;;19.30;99.90;;;;;;5026239;28;20095;-49
2023/07/10 00:27:51;;;;;;;27.65;15.80;;;19.30;99.90;;;;;;5026329;28;20044;-48
2023/07/10 00:30:19;;;;;;;31.73;16.35;;;19.30;99.90;;;;;;5026142;28;20038;-48
2023/07/10 00:32:46;;;;;;;32.20;16.02;;;19.30;99.90;;;;;;5024821;28;20215;-53
2023/07/10 00:35:16;;;;;;;24.75;15.23;;;19.30;99.90;;;;;;5026216;28;20060;-51
2023/07/10 00:37:47;;;;;;;25.40;15.85;;;19.40;99.90;;;;;;5026508;28;20041;-49
2023/07/10 00:40:22;;;;;;;30.83;15.65;;;19.40;99.90;;;;;;5025404;28;20052;-49
2023/07/10 00:42:56;;;;;;;32.10;15.77;;;19.40;99.90;;;;;;5026367;28;20051;-50
2023/07/10 00:45:22;;;;;;;28.08;15.48;;;19.50;99.90;;;;;;5025586;28;20056;-50
2023/07/10 00:48:20;;;;;;;31.40;16.13;;;19.40;99.90;;;;;;5025404;28;20050;-49
2023/07/10 00:50:48;;;;;;;27.45;15.35;;;19.40;99.90;;;;;;5018454;28;20127;-54
2023/07/10 00:53:28;;;;;;;31.48;16.00;;;19.30;99.90;;;;;;5041634;28;20057;-47
2023/07/10 00:55:56;;;;;;;29.52;16.25;;;19.20;99.90;;;;;;5044996;28;20083;-49
2023/07/10 00:58:37;;;;;;;30.92;14.98;;;19.10;99.90;;;;;;5044525;28;20433;-50
2023/07/10 01:01:13;;;;;;;30.50;15.75;;;19.10;99.90;;;;;;5045301;28;20048;-51
2023/07/10 01:03:40;;;;;;;31.08;16.13;;;19.10;99.90;;;;;;5042068;28;20048;-49
2023/07/10 01:06:13;;;;;;;28.77;16.30;;;19.10;99.90;;;;;;5043646;28;20048;-50
2023/07/10 01:08:42;;;;;;;32.83;17.27;;;19.10;99.90;;;;;;5043616;28;20091;-51
2023/07/10 01:11:08;;;;;;;27.92;16.73;;;19.00;99.90;;;;;;5092177;23;20519;-49
2023/07/10 01:13:37;;;;;;;34.13;17.15;;;19.00;99.90;;;;;;5003519;28;20057;-48
2023/07/10 01:16:03;;;;;;;28.85;17.35;;;19.00;99.90;;;;;;5019965;28;20046;-50
2023/07/10 01:18:29;;;;;;;27.05;16.58;;;19.00;99.90;;;;;;5021294;28;20136;-49
2023/07/10 01:21:27;;;;;;;25.70;17.05;;;19.00;99.90;;;;;;5021954;28;20133;-50
2023/07/10 01:23:54;;;;;;;27.48;15.80;;;19.00;99.90;;;;;;5021850;28;20059;-48
2023/07/10 01:26:20;;;;;;;29.13;16.00;;;18.90;99.90;;;;;;5022459;28;20038;-49
2023/07/10 01:28:46;;;;;;;28.60;16.55;;;19.00;99.90;;;;;;5022879;28;20223;-52
2023/07/10 01:31:16;;;;;;;25.38;15.93;;;19.00;99.90;;;;;;5021456;28;20050;-52
2023/07/10 01:33:49;;;;;;;29.20;15.93;;;19.00;99.90;;;;;;5003807;28;20056;-47
2023/07/10 01:36:19;;;;;;;28.55;16.05;;;19.00;99.90;;;;;;5021194;28;20112;-49
2023/07/10 01:39:09;;;;;;;26.23;16.45;;;19.00;99.90;;;;;;5008327;28;20052;-50
2023/07/10 01:41:39;;;;;;;26.20;16.48;;;18.90;99.90;;;;;;4990593;28;20499;-48
2023/07/10 01:44:28;;;;;;;24.08;15.30;;;18.90;99.90;;;;;;5021242;28;20430;-49
2023/07/10 01:46:54;;;;;;;24.50;15.65;;;18.90;99.90;;;;;;5021326;28;20119;-47
2023/07/10 01:49:25;;;;;;;30.88;15.98;;;18.90;99.90;;;;;;5021274;28;20069;-50
2023/07/10 01:51:53;;;;;;;26.92;16.45;;;18.80;99.90;;;;;;5021922;28;20041;-50
2023/07/10 01:54:19;;;;;;;29.60;16.75;;;18.80;99.90;;;;;;5022040;28;20046;-49
2023/07/10 01:56:45;;;;;;;28.65;16.92;;;18.80;99.90;;;;;;5021019;28;20072;-52
2023/07/10 01:59:11;;;;;;;23.95;16.10;;;18.80;99.90;;;;;;5021699;28;20095;-48
2023/07/10 02:01:37;;;;;;;35.22;18.02;;;18.80;99.90;;;;;;5020937;28;20124;-49
2023/07/10 02:04:03;;;;;;;32.20;19.77;;;18.80;99.90;;;;;;5021890;28;20530;-49
2023/07/10 02:06:31;;;;;;;38.60;21.48;;;18.80;99.90;;;;;;5020950;28;20080;-49
2023/07/10 02:08:56;;;;;;;33.08;20.08;;;18.70;99.90;;;;;;5003688;28;20057;-48
2023/07/10 02:11:22;;;;;;;34.85;20.95;;;18.70;99.90;;;;;;5021148;28;20400;-48
2023/07/10 02:13:47;;;;;;;37.53;22.95;;;18.70;99.90;;;;;;5021135;28;20045;-49
2023/07/10 02:16:14;;;;;;;40.78;23.58;;;18.70;99.90;;;;;;5020359;28;20323;-52
2023/07/10 02:18:40;;;;;;;39.28;24.08;;;18.60;99.90;;;;;;5021244;28;20500;-49
2023/07/10 02:21:06;;;;;;;42.13;24.45;;;18.70;99.90;;;;;;5021355;28;20099;-50
2023/07/10 02:23:34;;;;;;;41.53;24.27;;;18.70;99.90;;;;;;5020863;28;20533;-50
2023/07/10 02:26:01;;;;;;;38.60;23.95;;;18.80;99.90;;;;;;5021143;28;20056;-50
2023/07/10 02:28:26;;;;;;;39.92;24.58;;;18.70;99.90;;;;;;5021420;28;20041;-49
2023/07/10 02:30:52;;;;;;;41.15;24.45;;;18.70;99.90;;;;;;5020579;28;20079;-52
2023/07/10 02:33:19;;;;;;;40.30;24.33;;;18.70;99.90;;;;;;5002809;28;20041;-48
2023/07/10 02:35:45;;;;;;;37.80;24.40;;;18.60;99.90;;;;;;5021134;28;20297;-52
2023/07/10 02:38:11;;;;;;;38.60;23.27;;;18.60;99.90;;;;;;5002966;28;20132;-49
2023/07/10 02:40:37;;;;;;;38.00;24.23;;;18.60;99.90;;;;;;5020738;28;20324;-50
2023/07/10 02:43:02;;;;;;;39.22;24.58;;;18.60;99.90;;;;;;5021131;28;20048;-48
2023/07/10 02:45:28;;;;;;;41.00;24.10;;;18.70;99.90;;;;;;5020787;28;20052;-51
2023/07/10 02:47:54;;;;;;;34.92;22.60;;;18.60;99.90;;;;;;5019376;28;20053;-50
2023/07/10 02:50:19;;;;;;;35.65;23.15;;;18.60;99.90;;;;;;5021005;28;20137;-51
2023/07/10 02:52:45;;;;;;;37.80;25.52;;;18.50;99.90;;;;;;5002982;28;20045;-48
2023/07/10 02:55:10;;;;;;;44.38;25.63;;;18.60;99.90;;;;;;5020825;28;20073;-48
2023/07/10 02:57:36;;;;;;;39.13;24.80;;;18.50;99.90;;;;;;5020116;28;20052;-49
2023/07/10 03:00:03;;;;;;;40.13;24.77;;;18.50;99.90;;;;;;5020642;28;20068;-49
2023/07/10 03:02:29;;;;;;;40.20;24.52;;;18.50;99.90;;;;;;5001466;28;20041;-49
2023/07/10 03:04:54;;;;;;;40.88;25.15;;;18.40;99.90;;;;;;5000547;28;20045;-52
2023/07/10 03:07:20;;;;;;;32.90;22.70;;;18.50;99.90;;;;;;5001710;28;20125;-49
2023/07/10 03:09:45;;;;;;;33.42;23.55;;;18.40;99.90;;;;;;5000830;28;20400;-48
2023/07/10 03:12:11;;;;;;;34.63;23.38;;;18.40;99.90;;;;;;5000926;28;20480;-49
2023/07/10 03:14:37;;;;;;;38.35;23.75;;;18.40;99.90;;;;;;5000466;28;20030;-50
2023/07/10 03:17:04;;;;;;;36.17;23.88;;;18.40;99.90;;;;;;5000179;28;20069;-49
2023/07/10 03:19:32;;;;;;;36.67;23.50;;;18.40;99.90;;;;;;5001309;28;20050;-48
2023/07/10 03:21:58;;;;;;;34.28;23.73;;;18.40;99.90;;;;;;5000404;28;20381;-50
2023/07/10 03:24:24;;;;;;;37.38;22.83;;;18.50;99.90;;;;;;4983127;28;20053;-49
2023/07/10 03:26:50;;;;;;;32.20;23.70;;;18.40;99.90;;;;;;5001411;28;20034;-49
2023/07/10 03:29:16;;;;;;;32.83;22.67;;;18.40;99.90;;;;;;5004885;28;20393;-50
2023/07/10 03:31:43;;;;;;;30.85;22.00;;;18.40;99.90;;;;;;5002950;28;20050;-48
2023/07/10 03:34:11;;;;;;;37.38;22.00;;;18.50;99.90;;;;;;5004706;28;20041;-49
2023/07/10 03:36:38;;;;;;;31.67;22.90;;;18.40;99.90;;;;;;5004836;28;20045;-49
2023/07/10 03:39:04;;;;;;;33.38;22.23;;;18.50;99.90;;;;;;5003788;28;20048;-48
2023/07/10 03:41:31;;;;;;;30.13;21.42;;;18.50;99.90;;;;;;5003417;28;20046;-48
2023/07/10 03:43:56;;;;;;;35.03;21.63;;;18.50;99.90;;;;;;4986495;28;20436;-50
2023/07/10 03:46:22;;;;;;;31.67;21.55;;;18.50;99.90;;;;;;5003653;28;20046;-49
2023/07/10 03:48:48;;;;;;;36.33;22.30;;;18.50;99.90;;;;;;5004253;28;20093;-48
2023/07/10 03:51:15;;;;;;;36.30;21.95;;;18.30;99.90;;;;;;5004512;28;20527;-49
2023/07/10 03:53:41;;;;;;;35.80;22.33;;;18.30;99.90;;;;;;5004416;28;20044;-49
2023/07/10 03:56:07;;;;;;;28.17;20.52;;;18.30;99.90;;;;;;5003398;28;20671;-50
2023/07/10 03:58:35;;;;;;;33.03;22.85;;;18.30;99.90;;;;;;5004139;28;20095;-49
2023/07/10 04:01:01;;;;;;;32.40;21.83;;;18.20;99.90;;;;;;5003378;28;20045;-48
2023/07/10 04:03:32;;;;;;;30.63;20.95;;;18.20;99.90;;;;;;5003520;28;20408;-50
2023/07/10 04:05:58;;;;;;;31.83;20.73;;;18.20;99.90;;;;;;5003871;28;20378;-52
2023/07/10 04:08:28;;;;;;;32.28;21.30;;;18.20;99.90;;;;;;5004671;28;20049;-49
2023/07/10 04:10:56;;;;;;;29.50;20.08;;;18.20;99.90;;;;;;5003402;28;20277;-50
2023/07/10 04:13:22;;;;;;;25.63;18.02;;;18.20;99.90;;;;;;5003937;28;20137;-49
2023/07/10 04:15:57;;;;;;;31.77;20.25;;;18.20;99.90;;;;;;5003927;28;20050;-50
2023/07/10 04:18:23;;;;;;;27.20;18.67;;;18.30;99.90;;;;;;5003800;28;20301;-47
2023/07/10 04:20:49;;;;;;;26.70;17.63;;;18.30;99.90;;;;;;5003839;28;20034;-49
2023/07/10 04:23:15;;;;;;;23.90;17.35;;;18.20;99.90;;;;;;5003774;28;20038;-48
2023/07/10 04:25:40;;;;;;;23.98;16.88;;;18.20;99.90;;;;;;5003889;28;20042;-47
2023/07/10 04:28:06;;;;;;;22.98;15.18;;;18.20;99.90;;;;;;5002962;28;20077;-51
2023/07/10 04:30:32;;;;;;;24.25;14.80;;;18.20;99.90;;;;;;5003868;28;20042;-48
2023/07/10 04:32:58;;;;;;;18.02;13.30;;;18.20;99.90;;;;;;5003233;28;20378;-48
2023/07/10 04:35:23;;;;;;;21.17;12.90;;;18.30;99.90;;;;;;5003120;28;20057;-50
2023/07/10 04:37:49;;;;;;;20.05;11.45;;;18.20;99.90;;;;;;5002767;28;20049;-50
2023/07/10 04:40:15;;;;;;;14.80;10.98;;;18.20;99.90;;;;;;4986266;28;20157;-47
2023/07/10 04:42:41;;;;;;;17.17;11.45;;;18.20;99.90;;;;;;5003617;28;20081;-50
2023/07/10 04:45:07;;;;;;;17.23;11.57;;;18.40;99.90;;;;;;5002837;28;20050;-50
2023/07/10 04:47:33;;;;;;;17.77;10.98;;;18.30;99.90;;;;;;5002047;28;20476;-49
2023/07/10 04:49:59;;;;;;;21.83;11.25;;;18.40;99.90;;;;;;5003513;28;20343;-48
2023/07/10 04:52:24;;;;;;;13.40;10.00;;;18.40;99.90;;;;;;5003166;28;20091;-47
2023/07/10 04:54:50;;;;;;;17.65;9.88;;;18.50;99.90;;;;;;5002922;28;20041;-48
2023/07/10 04:57:17;;;;;;;12.02;8.95;;;18.50;99.90;;;;;;5002931;28;20038;-50
2023/07/10 04:59:43;;;;;;;14.45;8.48;;;18.50;99.90;;;;;;5002808;28;20038;-49
2023/07/10 05:02:08;;;;;;;11.85;8.23;;;18.50;99.90;;;;;;5001558;28;20103;-49
2023/07/10 05:04:34;;;;;;;13.07;8.30;;;18.50;99.90;;;;;;5002983;28;20427;-49
2023/07/10 05:07:02;;;;;;;11.45;7.85;;;18.50;99.90;;;;;;5003126;28;20535;-50
2023/07/10 05:09:29;;;;;;;11.85;8.10;;;18.50;99.90;;;;;;5002681;28;20073;-49
2023/07/10 05:11:55;;;;;;;10.85;7.65;;;18.50;99.90;;;;;;5002451;28;20058;-48
2023/07/10 05:14:21;;;;;;;12.85;8.38;;;18.50;99.90;;;;;;5002726;28;20128;-48
2023/07/10 05:16:46;;;;;;;14.82;8.57;;;18.50;99.90;;;;;;5001917;28;20038;-50
2023/07/10 05:19:12;;;;;;;14.18;8.80;;;18.50;99.90;;;;;;5001805;28;20476;-49
2023/07/10 05:21:38;;;;;;;16.20;9.13;;;18.50;99.90;;;;;;4984745;28;20541;-51
2023/07/10 05:24:04;;;;;;;15.15;8.43;;;18.50;99.90;;;;;;5002524;28;20144;-47
2023/07/10 05:26:30;;;;;;;13.35;8.63;;;18.50;99.90;;;;;;5002806;28;20053;-52
2023/07/10 05:28:56;;;;;;;19.08;9.25;;;18.50;99.90;;;;;;5001890;28;20030;-49
2023/07/10 05:31:22;;;;;;;14.75;8.43;;;18.60;99.90;;;;;;5001088;28;20127;-48
2023/07/10 05:33:49;;;;;;;12.63;8.05;;;18.50;99.90;;;;;;5002245;28;20108;-47
2023/07/10 05:36:16;;;;;;;10.45;8.07;;;18.50;99.90;;;;;;4992147;28;20455;-48
2023/07/10 05:38:41;;;;;;;14.27;8.57;;;18.50;99.90;;;;;;4990919;28;20049;-48
2023/07/10 05:41:08;;;;;;;11.63;7.90;;;18.50;99.90;;;;;;5002247;28;20052;-49
2023/07/10 05:43:35;;;;;;;10.73;7.43;;;18.50;99.90;;;;;;5001992;28;20050;-49
2023/07/10 05:46:01;;;;;;;8.63;7.43;;;18.50;99.90;;;;;;5001650;28;20116;-48
2023/07/10 05:48:28;;;;;;;13.45;7.47;;;18.50;99.90;;;;;;5001950;28;20054;-52
2023/07/10 05:50:54;;;;;;;10.50;6.85;;;18.60;99.90;;;;;;5000740;28;20046;-51
2023/07/10 05:53:20;;;;;;;11.77;6.45;;;18.60;99.90;;;;;;5000772;28;20045;-47
2023/07/10 05:55:52;;;;;;;12.10;5.90;;;18.60;99.90;;;;;;5001872;28;20261;-49
2023/07/10 05:58:19;;;;;;;9.25;5.60;;;18.50;99.90;;;;;;5001822;28;20060;-48
2023/07/10 06:00:48;;;;;;;9.90;5.97;;;18.50;99.90;;;;;;5000483;28;20053;-50
2023/07/10 06:03:13;;;;;;;9.20;5.45;;;18.50;99.90;;;;;;5001829;28;20042;-48
2023/07/10 06:05:39;;;;;;;10.52;5.70;;;18.50;99.90;;;;;;5001283;28;20068;-51
2023/07/10 06:08:05;;;;;;;10.32;5.82;;;18.50;99.90;;;;;;4983621;28;20041;-48
2023/07/10 06:10:33;;;;;;;11.73;5.95;;;18.60;99.90;;;;;;5002219;28;20459;-50
2023/07/10 06:12:58;;;;;;;10.35;6.07;;;18.60;99.90;;;;;;5001269;28;20054;-47
2023/07/10 06:15:24;;;;;;;9.88;5.57;;;18.70;99.90;;;;;;5001501;28;20048;-47
2023/07/10 06:17:50;;;;;;;9.45;5.97;;;18.70;99.90;;;;;;4999608;28;20042;-49
2023/07/10 06:20:16;;;;;;;11.15;5.90;;;18.70;99.90;;;;;;5001202;28;20847;-48
2023/07/10 06:22:42;;;;;;;9.15;5.68;;;18.80;99.90;;;;;;5001232;28;20037;-47
2023/07/10 06:25:09;;;;;;;9.10;5.75;;;18.90;99.90;;;;;;5000940;28;20046;-47
2023/07/10 06:27:34;;;;;;;10.70;6.20;;;18.90;99.90;;;;;;5001958;28;20080;-47
2023/07/10 06:30:01;;;;;;;11.43;5.90;;;19.00;99.90;;;;;;5001163;28;20519;-48
2023/07/10 06:32:27;;;;;;;9.68;5.90;;;19.00;99.90;;;;;;5000420;28;20085;-47
2023/07/10 06:34:52;;;;;;;9.27;5.28;;;19.00;99.90;;;;;;4998976;28;20077;-51
2023/07/10 06:37:18;;;;;;;9.93;5.63;;;19.00;99.90;;;;;;5001451;28;20081;-47
2023/07/10 06:39:43;;;;;;;9.48;5.60;;;19.10;99.90;;;;;;5000852;28;20038;-49
2023/07/10 06:42:09;;;;;;;12.50;5.40;;;19.10;99.90;;;;;;5000648;28;20044;-51
2023/07/10 06:44:35;;;;;;;11.25;5.90;;;19.10;99.90;;;;;;5001325;28;20104;-51
2023/07/10 06:47:00;;;;;;;9.27;6.05;;;19.20;99.90;;;;;;5000112;28;20068;-50
2023/07/10 06:49:26;;;;;;;11.27;5.60;;;19.20;99.90;;;;;;5000939;28;20049;-51
2023/07/10 06:51:52;;;;;;;9.00;6.20;;;19.20;99.90;;;;;;4982366;28;20041;-48
2023/07/10 06:54:18;;;;;;;12.50;6.43;;;19.20;99.90;;;;;;5000585;28;20489;-51
2023/07/10 06:56:43;;;;;;;11.05;6.43;;;19.20;99.90;;;;;;5011815;28;20420;-49
2023/07/10 06:59:09;;;;;;;9.40;6.90;;;19.20;99.90;;;;;;5001472;28;20084;-48
2023/07/10 07:01:34;;;;;;;13.38;6.68;;;19.20;99.90;;;;;;4999433;28;20129;-48
2023/07/10 07:04:00;;;;;;;11.82;6.35;;;19.30;99.90;;;;;;5001024;28;20053;-48
2023/07/10 07:06:26;;;;;;;9.63;6.68;;;19.60;99.90;;;;;;5003127;28;20064;-47
2023/07/10 07:08:52;;;;;;;13.18;6.07;;;20.10;99.90;;;;;;5008973;28;20517;-53
2023/07/10 07:11:19;;;;;;;12.15;5.95;;;20.50;99.90;;;;;;5004912;28;20086;-47
2023/07/10 07:13:44;;;;;;;11.32;5.78;;;20.50;99.90;;;;;;5017172;28;20052;-50
2023/07/10 07:16:10;;;;;;;12.45;6.35;;;20.50;99.90;;;;;;5000112;28;20125;-49
2023/07/10 07:18:36;;;;;;;8.65;4.90;;;20.50;99.90;;;;;;5000258;28;20038;-51
2023/07/10 07:21:02;;;;;;;10.27;5.47;;;20.50;99.90;;;;;;5008380;28;20220;-48
2023/07/10 07:23:28;;;;;;;8.30;5.28;;;20.60;99.90;;;;;;5018211;28;20515;-49
2023/07/10 07:25:55;;;;;;;7.72;5.15;;;20.70;99.90;;;;;;5016508;28;20049;-49
2023/07/10 07:28:21;;;;;;;11.02;4.53;;;20.80;99.90;;;;;;5017633;28;20091;-48
2023/07/10 07:30:47;;;;;;;11.40;4.47;;;20.70;99.90;;;;;;5016884;28;20047;-50
2023/07/10 07:33:21;;;;;;;10.05;4.18;;;20.80;99.90;;;;;;5016796;28;20496;-51
2023/07/10 07:35:47;;;;;;;;;;;21.10;99.90;;;;;;5018461;28;20049;-51
2023/07/10 07:38:14;;;;;;;10.05;3.95;;;21.50;99.90;;;;;;5011114;28;20257;-49
2023/07/10 07:40:40;;;;;;;6.97;3.53;;;21.90;99.90;;;;;;5014453;28;20091;-48
2023/07/10 07:43:05;;;;;;;8.00;4.30;;;21.90;99.90;;;;;;5013825;28;20037;-51
2023/07/10 07:45:31;;;;;;;7.10;3.80;;;21.70;99.90;;;;;;5018170;28;20461;-49
2023/07/10 07:47:57;;;;;;;7.35;3.40;;;21.70;99.90;;;;;;5019984;28;20045;-47
2023/07/10 07:50:22;;;;;;;7.65;3.25;;;21.80;99.90;;;;;;5019523;28;20261;-49
2023/07/10 07:52:48;;;;;;;6.90;2.67;;;22.00;99.90;;;;;;5020249;28;20223;-50
2023/07/10 07:55:13;;;;;;;9.48;3.03;;;22.00;99.90;;;;;;5020405;28;20033;-51
2023/07/10 07:57:39;;;;;;;5.78;3.05;;;22.20;99.90;;;;;;5020486;28;20268;-49
2023/07/10 08:00:06;;;;;;;8.93;3.28;;;22.50;99.90;;;;;;5018917;28;20685;-48
2023/07/10 08:02:32;;;;;;;6.30;2.78;;;22.50;99.90;;;;;;5019313;28;20060;-50
2023/07/10 08:05:00;;;;;;;10.10;2.83;;;22.30;99.90;;;;;;5019794;28;20048;-50
2023/07/10 08:07:26;;;;;;;6.05;2.90;;;22.10;99.90;;;;;;5013085;28;20037;-48
2023/07/10 08:09:52;;;;;;;6.70;3.13;;;22.20;99.90;;;;;;5019524;28;20103;-50
2023/07/10 08:12:17;;;;;;;6.18;2.97;;;22.40;99.90;;;;;;5019271;28;20470;-48
2023/07/10 08:14:43;;;;;;;11.93;3.03;;;22.60;99.90;;;;;;5022494;28;20061;-49
2023/07/10 08:17:08;;;;;;;6.20;3.00;;;22.70;99.90;;;;;;5021584;28;20408;-48
2023/07/10 08:19:34;;;;;;;7.55;2.83;;;22.80;99.90;;;;;;5023034;28;20493;-49
2023/07/10 08:22:00;;;;;;;10.40;3.03;;;22.90;99.90;;;;;;5022927;28;20064;-48
2023/07/10 08:24:26;;;;;;;7.05;3.05;;;22.70;99.90;;;;;;5023069;28;20037;-48
2023/07/10 08:26:51;;;;;;;6.22;2.70;;;22.70;99.90;;;;;;5022334;28;20060;-51
2023/07/10 08:29:31;;;;;;;9.35;2.45;;;22.80;99.90;;;;;;5022452;28;20101;-50
2023/07/10 08:31:58;;;;;;;6.00;2.33;;;22.70;99.90;;;;;;5003868;28;20127;-48
2023/07/10 08:34:26;;;;;;;7.10;2.25;;;22.80;99.90;;;;;;5004445;28;20049;-51
2023/07/10 08:36:52;;;;;;;6.82;2.40;;;22.80;99.90;;;;;;5022807;28;20488;-50
2023/07/10 08:39:19;;;;;;;4.63;2.03;;;22.80;99.90;;;;;;5014897;28;20095;-47
2023/07/10 08:41:52;;;;;;;7.07;2.58;;;22.80;99.90;;;;;;5002225;28;20347;-50
2023/07/10 08:44:18;;;;;;;6.70;2.67;;;22.70;99.90;;;;;;5002569;28;20117;-49
2023/07/10 08:46:44;;;;;;;6.65;2.63;;;22.90;99.90;;;;;;4984412;28;20073;-53
2023/07/10 08:49:16;;;;;;;6.07;2.30;;;23.10;99.90;;;;;;5002289;28;20095;-49
2023/07/10 08:51:55;;;;;;;6.88;2.67;;;23.20;99.90;;;;;;5003061;28;20216;-48
2023/07/10 08:54:21;;;;;;;6.30;2.60;;;23.10;99.90;;;;;;5002082;28;20568;-51
2023/07/10 08:56:53;;;;;;;8.93;2.78;;;23.00;99.90;;;;;;5002676;28;20124;-52
2023/07/10 08:59:36;;;;;;;9.80;2.55;;;23.10;99.90;;;;;;5002821;28;20046;-51
2023/07/10 09:02:03;;;;;;;5.57;2.15;;;23.30;99.90;;;;;;5001181;28;20049;-54
2023/07/10 09:04:30;;;;;;;7.53;2.50;;;23.30;99.90;;;;;;5002925;28;20088;-53
2023/07/10 09:07:01;;;;;;;5.65;2.25;;;23.40;99.90;;;;;;5002247;28;20093;-53
2023/07/10 09:09:30;;;;;;;6.80;2.08;;;23.40;99.90;;;;;;5001881;28;20049;-53
2023/07/10 09:12:00;;;;;;;7.88;2.55;;;23.60;99.90;;;;;;4984854;28;20058;-55
2023/07/10 09:14:46;;;;;;;6.65;2.00;;;23.60;99.90;;;;;;5002850;28;20038;-53
2023/07/10 09:17:19;;;;;;;5.85;1.83;;;23.70;99.90;;;;;;5002205;28;20104;-53
2023/07/10 09:19:51;;;;;;;9.10;2.15;;;23.70;99.90;;;;;;5002912;28;20053;-55
2023/07/10 09:22:16;;;;;;;4.93;1.98;;;23.80;99.90;;;;;;5001894;28;20132;-54
2023/07/10 09:24:42;;;;;;;7.57;2.28;;;24.10;99.90;;;;;;5002582;28;20153;-53
2023/07/10 09:27:14;;;;;;;9.00;2.70;;;24.10;99.90;;;;;;4984854;28;20046;-51
2023/07/10 09:29:45;;;;;;;7.20;1.88;;;24.10;99.90;;;;;;5001945;28;20125;-53
2023/07/10 09:32:13;;;;;;;7.63;2.00;;;24.10;99.90;;;;;;5001581;28;20049;-54
2023/07/10 09:34:58;;;;;;;5.50;1.92;;;24.20;99.90;;;;;;5002064;28;20052;-51
2023/07/10 09:37:35;;;;;;;9.95;2.08;;;24.30;99.10;;;;;;5002166;28;20038;-51
2023/07/10 09:40:38;;;;;;;5.07;1.80;;;24.50;99.60;;;;;;5002601;28;20443;-52
2023/07/10 09:43:11;;;;;;;5.07;2.05;;;24.60;98.40;;;;;;5002168;28;20298;-53
2023/07/10 09:45:41;;;;;;;4.32;1.83;;;24.60;97.10;;;;;;5000771;28;20137;-52
2023/07/10 09:48:21;;;;;;;4.60;1.73;;;24.50;98.50;;;;;;5001875;28;20073;-53
2023/07/10 09:50:49;;;;;;;8.93;2.00;;;24.70;98.00;;;;;;5001771;28;20056;-52
2023/07/10 09:53:32;;;;;;;5.43;2.10;;;24.80;97.80;;;;;;5002134;28;20096;-53
2023/07/10 09:55:58;;;;;;;4.63;1.67;;;24.80;97.60;;;;;;5001683;28;20089;-54
2023/07/10 09:58:24;;;;;;;8.43;2.05;;;24.60;96.10;;;;;;4983383;28;20069;-53
2023/07/10 10:00:50;;;;;;;5.80;1.90;;;24.70;96.70;;;;;;5000758;28;20038;-51
2023/07/10 10:03:27;;;;;;;4.47;1.75;;;24.80;96.50;;;;;;5001987;28;20038;-55
2023/07/10 10:05:57;;;;;;;5.00;1.98;;;24.90;96.00;;;;;;5000440;28;20516;-53
2023/07/10 10:08:29;;;;;;;7.60;2.10;;;24.80;96.30;;;;;;5001699;28;20068;-52
2023/07/10 10:11:06;;;;;;;6.00;2.08;;;24.90;96.20;;;;;;4983709;28;20058;-54
2023/07/10 10:13:40;;;;;;;7.05;1.92;;;24.90;96.20;;;;;;5001534;28;20081;-51
2023/07/10 10:16:37;;;;;;;8.82;2.42;;;25.10;96.00;;;;;;4983015;28;20411;-53
2023/07/10 10:19:24;;;;;;;6.10;2.00;;;25.00;95.70;;;;;;5001180;28;20474;-53
2023/07/10 10:21:50;;;;;;;8.52;2.42;;;24.70;96.70;;;;;;5015653;28;20069;-53
2023/07/10 10:24:16;;;;;;;7.07;2.42;;;24.70;97.40;;;;;;5015741;28;20433;-54
2023/07/10 10:27:12;;;;;;;8.13;2.00;;;24.90;97.00;;;;;;5020093;28;20688;-55
2023/07/10 10:29:58;;;;;;;5.28;1.95;;;25.30;96.70;;;;;;5020805;28;20045;-54
2023/07/10 10:32:45;;;;;;;5.47;2.05;;;25.60;96.40;;;;;;5015476;28;20048;-55
2023/07/10 10:35:27;;;;;;;8.13;2.00;;;25.80;95.70;;;;;;5005972;28;20160;-55
2023/07/10 10:37:52;;;;;;;6.95;2.20;;;26.00;96.10;;;;;;5002482;28;20045;-53
2023/07/10 10:40:34;;;;;;;8.02;2.03;;;26.20;96.30;;;;;;5019125;28;20583;-53
2023/07/10 10:43:28;;;;;;;5.07;1.88;;;26.20;95.60;;;;;;5019076;28;20495;-54
2023/07/10 10:46:04;;;;;;;6.38;1.70;;;26.20;95.00;;;;;;5019778;28;20114;-53
2023/07/10 10:48:45;;;;;;;6.78;2.22;;;26.00;94.00;;;;;;4999808;28;20041;-54
2023/07/10 10:51:39;;;;;;;5.38;1.92;;;26.00;94.50;;;;;;5018786;28;20475;-53
2023/07/10 10:54:16;;;;;;;4.72;1.90;;;25.80;94.40;;;;;;5018250;28;20048;-55
2023/07/10 10:57:24;;;;;;;8.93;2.30;;;25.90;95.40;;;;;;5020170;28;20038;-53
2023/07/10 11:00:17;;;;;;;6.55;2.30;;;26.10;93.50;;;;;;4991381;28;20132;-54
2023/07/10 11:03:25;;;;;;;7.10;2.00;;;26.20;93.80;;;;;;5019055;28;20403;-53
2023/07/10 11:05:54;;;;;;;6.78;2.47;;;26.30;93.70;;;;;;5014120;28;20045;-55
2023/07/10 11:08:22;;;;;;;9.43;2.50;;;26.50;94.20;;;;;;5001850;28;20092;-53
2023/07/10 11:10:49;;;;;;;6.38;2.00;;;26.50;93.70;;;;;;5013640;28;20069;-52
2023/07/10 11:13:33;;;;;;;7.05;1.83;;;26.60;94.20;;;;;;5018062;28;20052;-54
2023/07/10 11:16:02;;;;;;;6.63;2.10;;;26.60;94.10;;;;;;5019635;28;20672;-52
2023/07/10 11:18:28;;;;;;;8.10;2.10;;;26.50;94.20;;;;;;5019569;28;20520;-50
2023/07/10 11:20:53;;;;;;;7.72;2.05;;;26.30;94.30;;;;;;4986428;28;20046;-54
2023/07/10 11:23:51;;;;;;;9.15;2.58;;;26.10;94.20;;;;;;5001246;28;20034;-52
2023/07/10 11:26:25;;;;;;;5.95;1.92;;;26.10;94.00;;;;;;4985475;28;20046;-53
2023/07/10 11:28:59;;;;;;;7.70;2.17;;;26.20;93.30;;;;;;5000575;28;20058;-53
2023/07/10 11:31:37;;;;;;;5.53;1.65;;;26.50;93.90;;;;;;4999617;28;20393;-53
2023/07/10 11:34:06;;;;;;;5.45;1.67;;;26.70;92.40;;;;;;5000645;28;20389;-53
2023/07/10 11:36:34;;;;;;;8.23;2.35;;;26.80;92.20;;;;;;4999969;28;20335;-53
2023/07/10 11:39:05;;;;;;;7.18;2.10;;;26.70;92.80;;;;;;5000514;28;20054;-52
2023/07/10 11:41:54;;;;;;;8.73;2.55;;;26.80;93.60;;;;;;5000581;28;20046;-53
2023/07/10 11:44:29;;;;;;;7.78;1.98;;;26.90;93.60;;;;;;4972883;28;20482;-53
2023/07/10 11:46:58;;;;;;;6.40;2.13;;;26.90;92.90;;;;;;4999464;28;20550;-55
2023/07/10 11:49:26;;;;;;;9.80;2.20;;;26.90;93.00;;;;;;5003070;28;20078;-53
2023/07/10 11:52:15;;;;;;;7.38;2.17;;;26.90;92.80;;;;;;5004793;28;20042;-53
2023/07/10 11:54:42;;;;;;;9.07;2.20;;;26.90;92.10;;;;;;5004067;28;20046;-53
2023/07/10 11:57:07;;;;;;;7.07;1.63;;;26.80;92.70;;;;;;4986354;28;20045;-53
2023/07/10 11:59:44;;;;;;;5.82;1.90;;;26.70;92.00;;;;;;5003533;28;20045;-53
2023/07/10 12:02:24;;;;;;;6.05;1.75;;;26.70;90.90;;;;;;4985970;28;20088;-53
2023/07/10 12:04:50;;;;;;;7.32;1.77;;;26.80;91.60;;;;;;5017804;28;20041;-52
2023/07/10 12:07:16;;;;;;;8.80;2.13;;;26.90;91.80;;;;;;5010427;28;20455;-53
2023/07/10 12:09:42;;;;;;;7.63;2.20;;;26.90;92.40;;;;;;5022972;28;20124;-53
2023/07/10 12:12:12;;;;;;;9.63;2.10;;;26.80;92.60;;;;;;5022857;28;20493;-53
2023/07/10 12:14:38;;;;;;;6.57;1.90;;;26.90;92.60;;;;;;5021877;28;20099;-55
2023/07/10 12:17:09;;;;;;;5.45;2.05;;;26.80;92.50;;;;;;5023331;28;20049;-54
2023/07/10 12:19:37;;;;;;;10.27;2.40;;;26.60;93.00;;;;;;5005394;28;20557;-53
2023/07/10 12:22:19;;;;;;;7.13;1.95;;;26.40;93.30;;;;;;5023285;28;20182;-53
2023/07/10 12:24:58;;;;;;;8.38;2.00;;;26.60;92.50;;;;;;5023318;28;20431;-53
2023/07/10 12:27:24;;;;;;;11.15;2.25;;;26.60;92.80;;;;;;5024140;28;20371;-54
2023/07/10 12:29:51;;;;;;;8.13;1.95;;;26.40;92.20;;;;;;5021546;28;20069;-52
2023/07/10 12:32:18;;;;;;;5.82;2.00;;;26.20;92.20;;;;;;5022912;28;20037;-54
2023/07/10 12:34:45;;;;;;;8.60;1.73;;;26.10;92.20;;;;;;5005462;28;20281;-53
2023/07/10 12:37:14;;;;;;;9.55;1.73;;;26.30;92.70;;;;;;5013189;28;20053;-53
2023/07/10 12:39:42;;;;;;;11.50;2.08;;;26.50;92.70;;;;;;5005079;28;20071;-53
2023/07/10 12:42:34;;;;;;;8.27;1.98;;;26.80;92.40;;;;;;5003118;28;20416;-53
2023/07/10 12:45:10;;;;;;;6.43;2.30;;;26.70;92.00;;;;;;5002361;28;20117;-53
2023/07/10 12:47:36;;;;;;;6.38;1.80;;;26.50;91.80;;;;;;5002976;28;20038;-53
2023/07/10 12:50:02;;;;;;;7.78;2.50;;;26.30;91.50;;;;;;5002295;28;20057;-53